sensor_id;sensor_type;location;lat;lon;timestamp;P1;durP1;ratioP1;P2;durP2;ratioP2
71969;SDS011;59838;52.152;5.436;2023-04-22T00:01:28;6.88;;;4.30;;
71969;SDS011;59838;52.152;5.436;2023-04-22T00:03:55;7.10;;;5.20;;
71969;SDS011;59838;52.152;5.436;2023-04-22T00:06:22;5.82;;;4.43;;
71969;SDS011;59838;52.152;5.436;2023-04-22T00:08:48;6.60;;;3.97;;
71969;SDS011;59838;52.152;5.436;2023-04-22T00:11:15;6.70;;;4.10;;
71969;SDS011;59838;52.152;5.436;2023-04-22T00:13:41;6.35;;;3.80;;
71969;SDS011;59838;52.152;5.436;2023-04-22T00:16:08;6.22;;;3.58;;
71969;SDS011;59838;52.152;5.436;2023-04-22T00:18:35;9.75;;;3.50;;
71969;SDS011;59838;52.152;5.436;2023-04-22T00:21:02;7.77;;;3.47;;
71969;SDS011;59838;52.152;5.436;2023-04-22T00:23:29;4.78;;;3.65;;
71969;SDS011;59838;52.152;5.436;2023-04-22T00:25:56;4.53;;;3.63;;
71969;SDS011;59838;52.152;5.436;2023-04-22T00:28:23;4.90;;;3.42;;
71969;SDS011;59838;52.152;5.436;2023-04-22T00:30:49;3.80;;;3.15;;
71969;SDS011;59838;52.152;5.436;2023-04-22T00:33:16;5.27;;;3.03;;
71969;SDS011;59838;52.152;5.436;2023-04-22T00:35:43;4.40;;;3.13;;
71969;SDS011;59838;52.152;5.436;2023-04-22T00:38:11;6.18;;;3.15;;
71969;SDS011;59838;52.152;5.436;2023-04-22T00:40:38;2.30;;;1.88;;
71969;SDS011;59838;52.152;5.436;2023-04-22T00:43:04;9.60;;;1.48;;
71969;SDS011;59838;52.152;5.436;2023-04-22T00:45:31;10.60;;;3.10;;
71969;SDS011;59838;52.152;5.436;2023-04-22T00:47:59;4.40;;;2.60;;
71969;SDS011;59838;52.152;5.436;2023-04-22T00:50:25;5.53;;;3.05;;
71969;SDS011;59838;52.152;5.436;2023-04-22T00:52:52;4.25;;;3.28;;
71969;SDS011;59838;52.152;5.436;2023-04-22T00:55:18;6.60;;;3.35;;
71969;SDS011;59838;52.152;5.436;2023-04-22T00:57:45;6.03;;;2.93;;
71969;SDS011;59838;52.152;5.436;2023-04-22T01:00:15;3.17;;;2.58;;
71969;SDS011;59838;52.152;5.436;2023-04-22T01:02:42;4.55;;;3.78;;
71969;SDS011;59838;52.152;5.436;2023-04-22T01:05:09;5.68;;;3.85;;
71969;SDS011;59838;52.152;5.436;2023-04-22T01:07:35;6.70;;;3.42;;
71969;SDS011;59838;52.152;5.436;2023-04-22T01:10:02;4.53;;;2.60;;
71969;SDS011;59838;52.152;5.436;2023-04-22T01:12:29;2.30;;;1.75;;
71969;SDS011;59838;52.152;5.436;2023-04-22T01:14:56;6.03;;;2.97;;
71969;SDS011;59838;52.152;5.436;2023-04-22T01:17:23;4.07;;;1.83;;
71969;SDS011;59838;52.152;5.436;2023-04-22T01:19:49;5.00;;;3.38;;
71969;SDS011;59838;52.152;5.436;2023-04-22T01:22:17;14.80;;;3.47;;
71969;SDS011;59838;52.152;5.436;2023-04-22T01:24:46;14.05;;;2.20;;
71969;SDS011;59838;52.152;5.436;2023-04-22T01:27:13;12.30;;;2.00;;
71969;SDS011;59838;52.152;5.436;2023-04-22T01:29:39;15.95;;;2.03;;
71969;SDS011;59838;52.152;5.436;2023-04-22T01:32:06;16.25;;;2.67;;
71969;SDS011;59838;52.152;5.436;2023-04-22T01:34:33;14.07;;;2.03;;
71969;SDS011;59838;52.152;5.436;2023-04-22T01:36:59;9.60;;;2.25;;
71969;SDS011;59838;52.152;5.436;2023-04-22T01:39:26;5.03;;;2.38;;
71969;SDS011;59838;52.152;5.436;2023-04-22T01:41:52;2.92;;;1.95;;
71969;SDS011;59838;52.152;5.436;2023-04-22T01:44:20;2.42;;;1.95;;
71969;SDS011;59838;52.152;5.436;2023-04-22T01:46:47;4.70;;;2.53;;
71969;SDS011;59838;52.152;5.436;2023-04-22T01:49:14;5.07;;;2.22;;
71969;SDS011;59838;52.152;5.436;2023-04-22T01:51:40;15.45;;;2.55;;
71969;SDS011;59838;52.152;5.436;2023-04-22T01:54:07;40.72;;;2.30;;
71969;SDS011;59838;52.152;5.436;2023-04-22T01:56:35;7.55;;;1.48;;
71969;SDS011;59838;52.152;5.436;2023-04-22T01:59:02;4.27;;;1.43;;
71969;SDS011;59838;52.152;5.436;2023-04-22T02:01:28;2.75;;;1.70;;
71969;SDS011;59838;52.152;5.436;2023-04-22T02:03:55;2.50;;;1.98;;
71969;SDS011;59838;52.152;5.436;2023-04-22T02:06:21;4.60;;;3.28;;
71969;SDS011;59838;52.152;5.436;2023-04-22T02:08:48;3.97;;;3.08;;
71969;SDS011;59838;52.152;5.436;2023-04-22T02:11:15;45.43;;;2.57;;
71969;SDS011;59838;52.152;5.436;2023-04-22T02:13:42;6.60;;;0.70;;
71969;SDS011;59838;52.152;5.436;2023-04-22T02:16:08;3.42;;;0.73;;
71969;SDS011;59838;52.152;5.436;2023-04-22T02:18:35;2.50;;;0.80;;
71969;SDS011;59838;52.152;5.436;2023-04-22T02:21:02;11.82;;;0.90;;
71969;SDS011;59838;52.152;5.436;2023-04-22T02:23:28;1.57;;;0.60;;
71969;SDS011;59838;52.152;5.436;2023-04-22T02:25:55;1.10;;;0.60;;
71969;SDS011;59838;52.152;5.436;2023-04-22T02:28:22;1.60;;;0.75;;
71969;SDS011;59838;52.152;5.436;2023-04-22T02:30:48;3.25;;;1.63;;
71969;SDS011;59838;52.152;5.436;2023-04-22T02:33:15;1.88;;;1.52;;
71969;SDS011;59838;52.152;5.436;2023-04-22T02:35:41;2.13;;;1.37;;
71969;SDS011;59838;52.152;5.436;2023-04-22T02:38:08;1.80;;;1.23;;
71969;SDS011;59838;52.152;5.436;2023-04-22T02:40:35;1.48;;;0.65;;
71969;SDS011;59838;52.152;5.436;2023-04-22T02:43:02;1.17;;;0.50;;
71969;SDS011;59838;52.152;5.436;2023-04-22T02:45:29;53.10;;;2.85;;
71969;SDS011;59838;52.152;5.436;2023-04-22T02:47:56;4.90;;;1.70;;
71969;SDS011;59838;52.152;5.436;2023-04-22T02:50:22;2.65;;;1.58;;
71969;SDS011;59838;52.152;5.436;2023-04-22T02:52:49;6.78;;;2.05;;
71969;SDS011;59838;52.152;5.436;2023-04-22T02:55:16;29.73;;;2.13;;
71969;SDS011;59838;52.152;5.436;2023-04-22T02:57:42;48.30;;;2.67;;
71969;SDS011;59838;52.152;5.436;2023-04-22T03:00:09;17.77;;;1.90;;
71969;SDS011;59838;52.152;5.436;2023-04-22T03:02:36;19.10;;;1.55;;
71969;SDS011;59838;52.152;5.436;2023-04-22T03:05:04;9.95;;;1.50;;
71969;SDS011;59838;52.152;5.436;2023-04-22T03:07:31;2.10;;;1.23;;
71969;SDS011;59838;52.152;5.436;2023-04-22T03:09:57;2.13;;;1.48;;
71969;SDS011;59838;52.152;5.436;2023-04-22T03:12:24;9.20;;;1.70;;
71969;SDS011;59838;52.152;5.436;2023-04-22T03:14:50;5.15;;;0.98;;
71969;SDS011;59838;52.152;5.436;2023-04-22T03:17:17;6.60;;;1.60;;
71969;SDS011;59838;52.152;5.436;2023-04-22T03:19:43;13.25;;;1.63;;
71969;SDS011;59838;52.152;5.436;2023-04-22T03:22:10;1.48;;;0.82;;
71969;SDS011;59838;52.152;5.436;2023-04-22T03:24:36;1.40;;;0.90;;
71969;SDS011;59838;52.152;5.436;2023-04-22T03:27:03;2.70;;;1.58;;
71969;SDS011;59838;52.152;5.436;2023-04-22T03:29:30;1.80;;;1.25;;
71969;SDS011;59838;52.152;5.436;2023-04-22T03:31:57;2.10;;;1.48;;
71969;SDS011;59838;52.152;5.436;2023-04-22T03:34:23;2.20;;;1.35;;
71969;SDS011;59838;52.152;5.436;2023-04-22T03:36:50;1.87;;;1.37;;
71969;SDS011;59838;52.152;5.436;2023-04-22T03:39:16;1.95;;;1.48;;
71969;SDS011;59838;52.152;5.436;2023-04-22T03:41:42;1.85;;;1.35;;
71969;SDS011;59838;52.152;5.436;2023-04-22T03:44:09;1.90;;;1.23;;
71969;SDS011;59838;52.152;5.436;2023-04-22T03:46:35;1.70;;;1.10;;
71969;SDS011;59838;52.152;5.436;2023-04-22T03:49:02;4.27;;;1.47;;
71969;SDS011;59838;52.152;5.436;2023-04-22T03:51:28;2.97;;;1.30;;
71969;SDS011;59838;52.152;5.436;2023-04-22T03:53:55;5.13;;;1.10;;
71969;SDS011;59838;52.152;5.436;2023-04-22T03:56:21;1.33;;;1.10;;
71969;SDS011;59838;52.152;5.436;2023-04-22T03:58:49;2.10;;;1.50;;
71969;SDS011;59838;52.152;5.436;2023-04-22T04:01:16;1.60;;;1.00;;
71969;SDS011;59838;52.152;5.436;2023-04-22T04:03:42;1.63;;;1.23;;
71969;SDS011;59838;52.152;5.436;2023-04-22T04:06:09;2.25;;;1.30;;
71969;SDS011;59838;52.152;5.436;2023-04-22T04:08:36;2.38;;;1.75;;
71969;SDS011;59838;52.152;5.436;2023-04-22T04:11:02;5.90;;;1.42;;
71969;SDS011;59838;52.152;5.436;2023-04-22T04:13:29;2.47;;;1.10;;
71969;SDS011;59838;52.152;5.436;2023-04-22T04:15:58;2.53;;;1.45;;
71969;SDS011;59838;52.152;5.436;2023-04-22T04:18:25;2.42;;;1.60;;
71969;SDS011;59838;52.152;5.436;2023-04-22T04:20:52;1.83;;;1.50;;
71969;SDS011;59838;52.152;5.436;2023-04-22T04:23:18;2.92;;;1.80;;
71969;SDS011;59838;52.152;5.436;2023-04-22T04:25:45;1.97;;;1.00;;
71969;SDS011;59838;52.152;5.436;2023-04-22T04:28:11;2.88;;;1.08;;
71969;SDS011;59838;52.152;5.436;2023-04-22T04:30:39;3.05;;;1.60;;
71969;SDS011;59838;52.152;5.436;2023-04-22T04:33:06;2.40;;;1.73;;
71969;SDS011;59838;52.152;5.436;2023-04-22T04:35:33;5.45;;;1.83;;
71969;SDS011;59838;52.152;5.436;2023-04-22T04:38:01;2.90;;;1.87;;
71969;SDS011;59838;52.152;5.436;2023-04-22T04:40:28;6.18;;;2.03;;
71969;SDS011;59838;52.152;5.436;2023-04-22T04:42:56;3.20;;;2.10;;
71969;SDS011;59838;52.152;5.436;2023-04-22T04:45:27;3.03;;;1.60;;
71969;SDS011;59838;52.152;5.436;2023-04-22T04:47:54;3.00;;;1.90;;
71969;SDS011;59838;52.152;5.436;2023-04-22T04:50:21;3.20;;;2.43;;
71969;SDS011;59838;52.152;5.436;2023-04-22T04:52:48;3.35;;;2.47;;
71969;SDS011;59838;52.152;5.436;2023-04-22T04:55:15;5.93;;;2.47;;
71969;SDS011;59838;52.152;5.436;2023-04-22T04:57:45;2.80;;;2.00;;
71969;SDS011;59838;52.152;5.436;2023-04-22T05:00:11;3.00;;;2.10;;
71969;SDS011;59838;52.152;5.436;2023-04-22T05:02:41;3.30;;;1.97;;
71969;SDS011;59838;52.152;5.436;2023-04-22T05:05:09;2.80;;;1.50;;
71969;SDS011;59838;52.152;5.436;2023-04-22T05:07:36;2.63;;;1.77;;
71969;SDS011;59838;52.152;5.436;2023-04-22T05:10:02;4.53;;;2.05;;
71969;SDS011;59838;52.152;5.436;2023-04-22T05:12:29;2.85;;;1.80;;
71969;SDS011;59838;52.152;5.436;2023-04-22T05:14:56;3.83;;;1.63;;
71969;SDS011;59838;52.152;5.436;2023-04-22T05:17:22;2.15;;;1.35;;
71969;SDS011;59838;52.152;5.436;2023-04-22T05:19:49;2.47;;;1.70;;
71969;SDS011;59838;52.152;5.436;2023-04-22T05:22:15;2.30;;;1.50;;
71969;SDS011;59838;52.152;5.436;2023-04-22T05:24:43;2.60;;;1.73;;
71969;SDS011;59838;52.152;5.436;2023-04-22T05:27:09;2.73;;;1.80;;
71969;SDS011;59838;52.152;5.436;2023-04-22T05:29:36;2.95;;;1.92;;
71969;SDS011;59838;52.152;5.436;2023-04-22T05:32:03;2.80;;;2.42;;
71969;SDS011;59838;52.152;5.436;2023-04-22T05:34:31;3.22;;;2.10;;
71969;SDS011;59838;52.152;5.436;2023-04-22T05:36:59;7.18;;;2.10;;
71969;SDS011;59838;52.152;5.436;2023-04-22T05:42:51;4.13;;;1.85;;
71969;SDS011;59838;52.152;5.436;2023-04-22T05:45:17;4.00;;;2.30;;
71969;SDS011;59838;52.152;5.436;2023-04-22T05:47:44;4.53;;;2.08;;
71969;SDS011;59838;52.152;5.436;2023-04-22T05:50:10;2.75;;;2.28;;
71969;SDS011;59838;52.152;5.436;2023-04-22T05:52:37;7.87;;;2.03;;
71969;SDS011;59838;52.152;5.436;2023-04-22T05:55:04;5.60;;;2.42;;
71969;SDS011;59838;52.152;5.436;2023-04-22T05:57:31;3.08;;;2.42;;
71969;SDS011;59838;52.152;5.436;2023-04-22T05:59:58;12.70;;;3.17;;
71969;SDS011;59838;52.152;5.436;2023-04-22T06:02:25;4.97;;;2.92;;
71969;SDS011;59838;52.152;5.436;2023-04-22T06:04:52;2.97;;;2.30;;
71969;SDS011;59838;52.152;5.436;2023-04-22T06:07:19;3.50;;;2.75;;
71969;SDS011;59838;52.152;5.436;2023-04-22T06:09:45;7.28;;;2.28;;
71969;SDS011;59838;52.152;5.436;2023-04-22T06:12:12;3.60;;;2.60;;
71969;SDS011;59838;52.152;5.436;2023-04-22T06:14:38;4.38;;;2.78;;
71969;SDS011;59838;52.152;5.436;2023-04-22T06:17:05;5.13;;;2.70;;
71969;SDS011;59838;52.152;5.436;2023-04-22T06:19:31;3.80;;;2.65;;
71969;SDS011;59838;52.152;5.436;2023-04-22T06:21:58;4.88;;;2.78;;
71969;SDS011;59838;52.152;5.436;2023-04-22T06:24:24;4.60;;;3.25;;
71969;SDS011;59838;52.152;5.436;2023-04-22T06:26:51;7.15;;;4.55;;
71969;SDS011;59838;52.152;5.436;2023-04-22T06:29:17;9.67;;;3.70;;
71969;SDS011;59838;52.152;5.436;2023-04-22T06:31:44;7.68;;;4.32;;
71969;SDS011;59838;52.152;5.436;2023-04-22T06:34:10;5.70;;;4.13;;
71969;SDS011;59838;52.152;5.436;2023-04-22T06:36:37;7.18;;;4.63;;
71969;SDS011;59838;52.152;5.436;2023-04-22T06:39:04;8.73;;;4.85;;
71969;SDS011;59838;52.152;5.436;2023-04-22T06:41:31;11.63;;;6.17;;
71969;SDS011;59838;52.152;5.436;2023-04-22T06:43:58;6.55;;;5.45;;
71969;SDS011;59838;52.152;5.436;2023-04-22T06:46:24;7.78;;;5.60;;
71969;SDS011;59838;52.152;5.436;2023-04-22T06:48:51;8.32;;;5.93;;
71969;SDS011;59838;52.152;5.436;2023-04-22T06:51:17;10.27;;;7.22;;
71969;SDS011;59838;52.152;5.436;2023-04-22T06:53:44;14.80;;;7.33;;
71969;SDS011;59838;52.152;5.436;2023-04-22T06:56:11;14.10;;;8.35;;
71969;SDS011;59838;52.152;5.436;2023-04-22T06:58:37;13.60;;;8.90;;
71969;SDS011;59838;52.152;5.436;2023-04-22T07:01:04;25.25;;;9.60;;
71969;SDS011;59838;52.152;5.436;2023-04-22T07:03:30;20.63;;;10.15;;
71969;SDS011;59838;52.152;5.436;2023-04-22T07:05:57;16.70;;;10.00;;
71969;SDS011;59838;52.152;5.436;2023-04-22T07:08:23;17.05;;;10.13;;
71969;SDS011;59838;52.152;5.436;2023-04-22T07:10:50;17.65;;;10.77;;
71969;SDS011;59838;52.152;5.436;2023-04-22T07:13:16;15.80;;;10.55;;
71969;SDS011;59838;52.152;5.436;2023-04-22T07:15:43;20.42;;;11.40;;
71969;SDS011;59838;52.152;5.436;2023-04-22T07:18:11;17.80;;;9.93;;
71969;SDS011;59838;52.152;5.436;2023-04-22T07:20:37;19.88;;;10.73;;
71969;SDS011;59838;52.152;5.436;2023-04-22T07:23:04;17.90;;;11.30;;
71969;SDS011;59838;52.152;5.436;2023-04-22T07:25:30;16.85;;;11.35;;
71969;SDS011;59838;52.152;5.436;2023-04-22T07:27:57;17.45;;;11.10;;
71969;SDS011;59838;52.152;5.436;2023-04-22T07:30:23;16.83;;;10.27;;
71969;SDS011;59838;52.152;5.436;2023-04-22T07:32:50;19.63;;;11.68;;
71969;SDS011;59838;52.152;5.436;2023-04-22T07:35:17;21.15;;;12.65;;
71969;SDS011;59838;52.152;5.436;2023-04-22T07:37:43;18.92;;;10.90;;
71969;SDS011;59838;52.152;5.436;2023-04-22T07:40:10;19.88;;;12.10;;
71969;SDS011;59838;52.152;5.436;2023-04-22T07:42:39;15.50;;;10.63;;
71969;SDS011;59838;52.152;5.436;2023-04-22T07:45:05;19.15;;;10.85;;
71969;SDS011;59838;52.152;5.436;2023-04-22T07:47:32;18.77;;;11.15;;
71969;SDS011;59838;52.152;5.436;2023-04-22T07:49:59;17.15;;;12.15;;
71969;SDS011;59838;52.152;5.436;2023-04-22T07:52:26;16.88;;;10.73;;
71969;SDS011;59838;52.152;5.436;2023-04-22T07:54:52;15.00;;;11.23;;
71969;SDS011;59838;52.152;5.436;2023-04-22T07:57:18;16.63;;;11.45;;
71969;SDS011;59838;52.152;5.436;2023-04-22T07:59:47;14.48;;;11.18;;
71969;SDS011;59838;52.152;5.436;2023-04-22T08:02:14;16.27;;;10.93;;
71969;SDS011;59838;52.152;5.436;2023-04-22T08:04:41;12.75;;;10.43;;
71969;SDS011;59838;52.152;5.436;2023-04-22T08:07:08;18.77;;;11.33;;
71969;SDS011;59838;52.152;5.436;2023-04-22T08:09:55;12.75;;;9.77;;
71969;SDS011;59838;52.152;5.436;2023-04-22T08:12:21;13.38;;;9.82;;
71969;SDS011;59838;52.152;5.436;2023-04-22T08:14:48;16.35;;;10.75;;
71969;SDS011;59838;52.152;5.436;2023-04-22T08:17:15;13.23;;;10.23;;
71969;SDS011;59838;52.152;5.436;2023-04-22T08:19:41;13.73;;;10.37;;
71969;SDS011;59838;52.152;5.436;2023-04-22T08:22:07;12.48;;;10.57;;
71969;SDS011;59838;52.152;5.436;2023-04-22T08:24:34;12.57;;;10.38;;
71969;SDS011;59838;52.152;5.436;2023-04-22T08:27:00;15.55;;;10.73;;
71969;SDS011;59838;52.152;5.436;2023-04-22T08:29:27;16.75;;;10.68;;
71969;SDS011;59838;52.152;5.436;2023-04-22T08:31:54;14.13;;;9.87;;
71969;SDS011;59838;52.152;5.436;2023-04-22T08:34:20;13.30;;;10.55;;
71969;SDS011;59838;52.152;5.436;2023-04-22T08:36:46;15.13;;;9.52;;
71969;SDS011;59838;52.152;5.436;2023-04-22T08:39:13;16.08;;;12.18;;
71969;SDS011;59838;52.152;5.436;2023-04-22T08:41:40;16.70;;;10.95;;
71969;SDS011;59838;52.152;5.436;2023-04-22T08:44:09;12.00;;;8.97;;
71969;SDS011;59838;52.152;5.436;2023-04-22T08:46:36;11.38;;;8.05;;
71969;SDS011;59838;52.152;5.436;2023-04-22T08:49:04;12.30;;;9.30;;
71969;SDS011;59838;52.152;5.436;2023-04-22T08:51:31;12.38;;;9.20;;
71969;SDS011;59838;52.152;5.436;2023-04-22T08:54:00;11.32;;;9.02;;
71969;SDS011;59838;52.152;5.436;2023-04-22T08:56:27;11.87;;;8.40;;
71969;SDS011;59838;52.152;5.436;2023-04-22T08:58:54;12.35;;;8.70;;
71969;SDS011;59838;52.152;5.436;2023-04-22T09:01:21;10.15;;;8.55;;
71969;SDS011;59838;52.152;5.436;2023-04-22T09:03:48;11.20;;;8.90;;
71969;SDS011;59838;52.152;5.436;2023-04-22T09:06:15;8.73;;;7.35;;
71969;SDS011;59838;52.152;5.436;2023-04-22T09:08:42;11.37;;;6.63;;
71969;SDS011;59838;52.152;5.436;2023-04-22T09:11:09;7.68;;;6.40;;
71969;SDS011;59838;52.152;5.436;2023-04-22T09:13:36;7.28;;;5.57;;
71969;SDS011;59838;52.152;5.436;2023-04-22T09:16:03;9.23;;;5.57;;
71969;SDS011;59838;52.152;5.436;2023-04-22T09:18:29;8.02;;;6.00;;
71969;SDS011;59838;52.152;5.436;2023-04-22T09:20:55;9.90;;;6.40;;
71969;SDS011;59838;52.152;5.436;2023-04-22T09:23:22;7.47;;;6.65;;
71969;SDS011;59838;52.152;5.436;2023-04-22T09:25:49;8.82;;;6.18;;
71969;SDS011;59838;52.152;5.436;2023-04-22T09:28:16;8.63;;;6.90;;
71969;SDS011;59838;52.152;5.436;2023-04-22T09:30:44;9.75;;;6.78;;
71969;SDS011;59838;52.152;5.436;2023-04-22T09:33:11;7.10;;;6.40;;
71969;SDS011;59838;52.152;5.436;2023-04-22T09:35:42;9.57;;;7.57;;
71969;SDS011;59838;52.152;5.436;2023-04-22T09:38:10;8.80;;;7.03;;
71969;SDS011;59838;52.152;5.436;2023-04-22T09:40:40;9.18;;;7.00;;
71969;SDS011;59838;52.152;5.436;2023-04-22T09:43:08;8.52;;;7.60;;
71969;SDS011;59838;52.152;5.436;2023-04-22T09:48:05;9.95;;;8.07;;
71969;SDS011;59838;52.152;5.436;2023-04-22T09:50:34;11.50;;;7.88;;
71969;SDS011;59838;52.152;5.436;2023-04-22T09:53:03;10.20;;;7.68;;
71969;SDS011;59838;52.152;5.436;2023-04-22T09:55:34;10.57;;;8.25;;
71969;SDS011;59838;52.152;5.436;2023-04-22T09:58:04;18.33;;;8.20;;
71969;SDS011;59838;52.152;5.436;2023-04-22T10:00:42;11.25;;;7.85;;
71969;SDS011;59838;52.152;5.436;2023-04-22T10:03:12;9.52;;;7.22;;
71969;SDS011;59838;52.152;5.436;2023-04-22T10:05:40;15.50;;;7.68;;
71969;SDS011;59838;52.152;5.436;2023-04-22T10:08:08;16.17;;;9.13;;
71969;SDS011;59838;52.152;5.436;2023-04-22T10:10:36;11.27;;;7.73;;
71969;SDS011;59838;52.152;5.436;2023-04-22T10:13:03;9.40;;;8.07;;
71969;SDS011;59838;52.152;5.436;2023-04-22T10:15:31;13.13;;;9.48;;
71969;SDS011;59838;52.152;5.436;2023-04-22T10:18:01;12.07;;;9.00;;
71969;SDS011;59838;52.152;5.436;2023-04-22T10:20:30;12.02;;;8.48;;
71969;SDS011;59838;52.152;5.436;2023-04-22T10:23:02;11.67;;;7.93;;
71969;SDS011;59838;52.152;5.436;2023-04-22T10:25:30;12.25;;;8.10;;
71969;SDS011;59838;52.152;5.436;2023-04-22T10:28:01;12.57;;;8.70;;
71969;SDS011;59838;52.152;5.436;2023-04-22T10:30:32;8.23;;;6.70;;
71969;SDS011;59838;52.152;5.436;2023-04-22T10:41:22;11.18;;;7.53;;
71969;SDS011;59838;52.152;5.436;2023-04-22T10:43:57;10.32;;;7.85;;
71969;SDS011;59838;52.152;5.436;2023-04-22T10:48:55;8.07;;;6.90;;
71969;SDS011;59838;52.152;5.436;2023-04-22T10:54:54;13.15;;;8.02;;
71969;SDS011;59838;52.152;5.436;2023-04-22T10:57:26;8.57;;;7.53;;
71969;SDS011;59838;52.152;5.436;2023-04-22T10:59:58;9.30;;;7.22;;
71969;SDS011;59838;52.152;5.436;2023-04-22T11:02:27;10.13;;;8.40;;
71969;SDS011;59838;52.152;5.436;2023-04-22T11:08:01;11.55;;;8.23;;
71969;SDS011;59838;52.152;5.436;2023-04-22T11:10:30;9.32;;;7.82;;
71969;SDS011;59838;52.152;5.436;2023-04-22T11:13:19;10.40;;;7.25;;
71969;SDS011;59838;52.152;5.436;2023-04-22T11:15:48;6.93;;;6.23;;
71969;SDS011;59838;52.152;5.436;2023-04-22T11:18:17;8.50;;;7.22;;
71969;SDS011;59838;52.152;5.436;2023-04-22T11:20:46;9.02;;;6.88;;
71969;SDS011;59838;52.152;5.436;2023-04-22T11:23:24;8.98;;;6.78;;
71969;SDS011;59838;52.152;5.436;2023-04-22T11:25:59;7.72;;;6.80;;
71969;SDS011;59838;52.152;5.436;2023-04-22T11:28:27;12.23;;;7.47;;
71969;SDS011;59838;52.152;5.436;2023-04-22T11:31:01;9.70;;;8.25;;
71969;SDS011;59838;52.152;5.436;2023-04-22T11:33:30;9.45;;;7.63;;
71969;SDS011;59838;52.152;5.436;2023-04-22T11:35:58;9.80;;;8.77;;
71969;SDS011;59838;52.152;5.436;2023-04-22T11:38:25;10.52;;;8.32;;
71969;SDS011;59838;52.152;5.436;2023-04-22T11:40:53;11.17;;;9.07;;
71969;SDS011;59838;52.152;5.436;2023-04-22T11:43:20;10.93;;;8.60;;
71969;SDS011;59838;52.152;5.436;2023-04-22T11:45:46;12.85;;;8.43;;
71969;SDS011;59838;52.152;5.436;2023-04-22T11:48:13;13.02;;;8.20;;
71969;SDS011;59838;52.152;5.436;2023-04-22T11:50:40;11.48;;;9.20;;
71969;SDS011;59838;52.152;5.436;2023-04-22T11:53:16;13.90;;;9.23;;
71969;SDS011;59838;52.152;5.436;2023-04-22T11:55:44;12.05;;;9.30;;
71969;SDS011;59838;52.152;5.436;2023-04-22T11:58:18;12.20;;;9.55;;
71969;SDS011;59838;52.152;5.436;2023-04-22T12:00:54;12.45;;;9.55;;
71969;SDS011;59838;52.152;5.436;2023-04-22T12:03:24;13.25;;;9.90;;
71969;SDS011;59838;52.152;5.436;2023-04-22T12:05:59;11.13;;;9.63;;
71969;SDS011;59838;52.152;5.436;2023-04-22T12:08:30;11.30;;;8.75;;
71969;SDS011;59838;52.152;5.436;2023-04-22T12:11:03;12.52;;;9.27;;
71969;SDS011;59838;52.152;5.436;2023-04-22T12:13:32;10.75;;;9.13;;
71969;SDS011;59838;52.152;5.436;2023-04-22T12:16:10;12.00;;;8.93;;
71969;SDS011;59838;52.152;5.436;2023-04-22T12:18:38;13.07;;;8.80;;
71969;SDS011;59838;52.152;5.436;2023-04-22T12:23:50;11.05;;;8.77;;
71969;SDS011;59838;52.152;5.436;2023-04-22T12:26:18;12.00;;;8.82;;
71969;SDS011;59838;52.152;5.436;2023-04-22T12:28:51;10.65;;;8.38;;
71969;SDS011;59838;52.152;5.436;2023-04-22T12:31:19;13.30;;;8.83;;
71969;SDS011;59838;52.152;5.436;2023-04-22T12:33:46;11.70;;;8.30;;
71969;SDS011;59838;52.152;5.436;2023-04-22T12:36:13;10.68;;;8.63;;
71969;SDS011;59838;52.152;5.436;2023-04-22T12:38:39;14.00;;;8.23;;
71969;SDS011;59838;52.152;5.436;2023-04-22T12:41:06;13.88;;;8.43;;
71969;SDS011;59838;52.152;5.436;2023-04-22T12:43:33;9.37;;;7.93;;
71969;SDS011;59838;52.152;5.436;2023-04-22T12:46:05;13.57;;;9.10;;
71969;SDS011;59838;52.152;5.436;2023-04-22T12:48:32;10.73;;;8.25;;
71969;SDS011;59838;52.152;5.436;2023-04-22T12:50:59;11.45;;;8.18;;
71969;SDS011;59838;52.152;5.436;2023-04-22T12:53:26;11.70;;;7.47;;
71969;SDS011;59838;52.152;5.436;2023-04-22T12:55:53;13.30;;;8.87;;
71969;SDS011;59838;52.152;5.436;2023-04-22T12:58:42;11.77;;;8.50;;
71969;SDS011;59838;52.152;5.436;2023-04-22T13:01:09;11.45;;;8.32;;
71969;SDS011;59838;52.152;5.436;2023-04-22T13:03:35;9.82;;;7.93;;
71969;SDS011;59838;52.152;5.436;2023-04-22T13:06:02;12.95;;;8.20;;
71969;SDS011;59838;52.152;5.436;2023-04-22T13:08:28;10.13;;;7.23;;
71969;SDS011;59838;52.152;5.436;2023-04-22T13:10:55;15.98;;;8.88;;
71969;SDS011;59838;52.152;5.436;2023-04-22T13:13:22;10.60;;;8.30;;
71969;SDS011;59838;52.152;5.436;2023-04-22T13:15:48;10.57;;;8.32;;
71969;SDS011;59838;52.152;5.436;2023-04-22T13:18:18;11.82;;;9.02;;
71969;SDS011;59838;52.152;5.436;2023-04-22T13:20:46;11.23;;;8.23;;
71969;SDS011;59838;52.152;5.436;2023-04-22T13:23:13;12.18;;;9.00;;
71969;SDS011;59838;52.152;5.436;2023-04-22T13:25:40;15.23;;;10.35;;
71969;SDS011;59838;52.152;5.436;2023-04-22T13:28:06;17.10;;;10.43;;
71969;SDS011;59838;52.152;5.436;2023-04-22T13:30:35;15.75;;;11.27;;
71969;SDS011;59838;52.152;5.436;2023-04-22T13:33:01;17.03;;;10.97;;
71969;SDS011;59838;52.152;5.436;2023-04-22T13:35:28;15.45;;;10.70;;
71969;SDS011;59838;52.152;5.436;2023-04-22T13:37:55;16.60;;;11.00;;
71969;SDS011;59838;52.152;5.436;2023-04-22T13:40:22;17.02;;;10.95;;
71969;SDS011;59838;52.152;5.436;2023-04-22T13:42:48;15.88;;;11.30;;
71969;SDS011;59838;52.152;5.436;2023-04-22T13:45:15;14.20;;;10.47;;
71969;SDS011;59838;52.152;5.436;2023-04-22T13:47:41;15.55;;;11.20;;
71969;SDS011;59838;52.152;5.436;2023-04-22T13:50:08;15.50;;;11.48;;
71969;SDS011;59838;52.152;5.436;2023-04-22T13:52:35;17.50;;;11.40;;
71969;SDS011;59838;52.152;5.436;2023-04-22T13:55:02;15.95;;;10.45;;
71969;SDS011;59838;52.152;5.436;2023-04-22T13:57:29;17.23;;;10.77;;
71969;SDS011;59838;52.152;5.436;2023-04-22T13:59:55;14.98;;;10.23;;
71969;SDS011;59838;52.152;5.436;2023-04-22T14:02:22;15.38;;;10.77;;
71969;SDS011;59838;52.152;5.436;2023-04-22T14:04:48;16.50;;;11.48;;
71969;SDS011;59838;52.152;5.436;2023-04-22T14:07:15;15.40;;;11.40;;
71969;SDS011;59838;52.152;5.436;2023-04-22T14:09:41;16.93;;;11.33;;
71969;SDS011;59838;52.152;5.436;2023-04-22T14:12:09;15.38;;;11.52;;
71969;SDS011;59838;52.152;5.436;2023-04-22T14:14:36;16.05;;;11.75;;
71969;SDS011;59838;52.152;5.436;2023-04-22T14:17:02;14.85;;;10.85;;
71969;SDS011;59838;52.152;5.436;2023-04-22T14:19:29;17.13;;;11.98;;
71969;SDS011;59838;52.152;5.436;2023-04-22T14:21:57;15.50;;;11.47;;
71969;SDS011;59838;52.152;5.436;2023-04-22T14:24:23;15.18;;;10.95;;
71969;SDS011;59838;52.152;5.436;2023-04-22T14:26:50;14.43;;;11.07;;
71969;SDS011;59838;52.152;5.436;2023-04-22T14:29:18;14.95;;;10.38;;
71969;SDS011;59838;52.152;5.436;2023-04-22T14:31:45;15.68;;;11.05;;
71969;SDS011;59838;52.152;5.436;2023-04-22T14:34:11;15.50;;;11.00;;
71969;SDS011;59838;52.152;5.436;2023-04-22T14:36:38;15.52;;;11.50;;
71969;SDS011;59838;52.152;5.436;2023-04-22T14:39:05;17.40;;;11.82;;
71969;SDS011;59838;52.152;5.436;2023-04-22T14:41:33;17.92;;;11.73;;
71969;SDS011;59838;52.152;5.436;2023-04-22T14:43:59;15.75;;;11.82;;
71969;SDS011;59838;52.152;5.436;2023-04-22T14:46:26;16.90;;;10.97;;
71969;SDS011;59838;52.152;5.436;2023-04-22T14:48:52;18.50;;;11.80;;
71969;SDS011;59838;52.152;5.436;2023-04-22T14:51:19;17.20;;;11.35;;
71969;SDS011;59838;52.152;5.436;2023-04-22T14:53:45;16.65;;;11.15;;
71969;SDS011;59838;52.152;5.436;2023-04-22T14:56:12;15.20;;;11.07;;
71969;SDS011;59838;52.152;5.436;2023-04-22T14:58:38;14.70;;;10.30;;
71969;SDS011;59838;52.152;5.436;2023-04-22T15:01:05;14.35;;;9.95;;
71969;SDS011;59838;52.152;5.436;2023-04-22T15:03:32;16.25;;;11.40;;
71969;SDS011;59838;52.152;5.436;2023-04-22T15:06:01;14.68;;;10.32;;